logo
Search for airport 
image banner adimage banner adimage banner ad
image banner ad

MMHIH - Itam Rio Hondo

Located in Alvaro Obregon, Mexico

ICAO - , IATA -

Data provided by Airmate  

General information

Coordinates: N19°20'43" W99°12'3"
Elevation is 8366 feet MSL.
Magnetic variation is 3° East
View others Airports in Distrito Federal

Operational data

Special qualification required
Current time UTC:
Current local time:
METAR: MMMX 171244Z 20004KT 8SM SCT100 OVC200 17/10 A3039 NOSIG RMK 8/077 ISOL SC HZY
TAF: TAF MMMX 171130Z 1712/1812 30005KT P6SM SCT020 BKN200 TX24/1721Z TN15/1712Z TEMPO 1712/1714 BKN015 FM171600 06005KT P6SM SCT015 FM172100 12010KT P6SM BKN015CB OVC080 TEMPO 1722/1802 VRB15G25KT 2SM TSRA FM180400 03005KT P6SM SCT020 BKN080
View NOTAMs / SUP AIP / TFR affecting this airport [VIEW]
Communications frequencies: [VIEW]

Runways:

Airport contact information

Address: Alvaro Obregon Mexico

Satellite view of MMHIH